»·PEaware :: DEC89 KLAX-KSFO

DEC89 :: KLAX-KSFO

FLIGHT INFORMATION

Flight Status: Arrived
Operator: Unknown
More flights by this operator :: More flights under this callsign
Pilot: William B. (10095)
Aircraft: BOEING 777-200
(B772)
More flights by this aircraft type
Origin: KLAX Los Angeles Intl
United States
Destination: KSFO San Francisco Intl
United States
More flights between these airports :: More routes between these airports
Route: + VTU7 RZS STOKD SERFR SERFR2
File this flight plan on PilotEdge
Remarks: P3d V3.4 PMDG777F
Altitude:
(Current/Filed)
310ft
Speed:
(Current/Filed)
300kts
Departed: 22-Jan-17 08:19 PM
Arrived: 22-Jan-17 09:14 PM
Distance/Time
Traveled:
294nm/0:55
Distance/Time
To Go:
Arrived

Flight Plot

Page will automatically refresh every two minutes.


Map Options




Map Legend


Flown Route
Filed Route
Departure Airport
Arrival Airport
Navaid (VOR, NDB)
Fix

Horizontal Profiles

Position Reports

Time Latitude Longitude Heading Altitude Ground
Speed
22-Jan-17 19:46 33.934359 -118.388487 81 139ft 0kts
22-Jan-17 19:47 33.934359 -118.388487 81 139ft 0kts
22-Jan-17 19:48 33.934359 -118.388487 81 139ft 0kts
22-Jan-17 19:49 33.934359 -118.388487 81 139ft 0kts
22-Jan-17 19:50 33.934359 -118.388487 81 139ft 0kts
22-Jan-17 19:51 33.934359 -118.388487 81 139ft 0kts
22-Jan-17 19:52 33.934359 -118.388487 81 139ft 0kts
22-Jan-17 19:53 33.934359 -118.388487 81 139ft 0kts
22-Jan-17 19:54 33.934359 -118.388487 81 139ft 0kts
22-Jan-17 19:55 33.934359 -118.388487 81 139ft 0kts
22-Jan-17 19:56 33.934359 -118.388487 81 139ft 0kts
22-Jan-17 19:57 33.934359 -118.388487 81 139ft 0kts
22-Jan-17 19:58 33.934359 -118.388487 81 139ft 0kts
22-Jan-17 19:59 33.934359 -118.388487 81 139ft 0kts
22-Jan-17 20:00 33.934359 -118.388487 81 139ft 0kts
22-Jan-17 20:01 33.934359 -118.388487 81 139ft 0kts
22-Jan-17 20:02 33.934359 -118.388487 81 139ft 0kts
22-Jan-17 20:03 33.934359 -118.388487 81 139ft 0kts
22-Jan-17 20:04 33.934359 -118.388487 81 139ft 0kts
22-Jan-17 20:05 33.934359 -118.388487 81 139ft 0kts
22-Jan-17 20:06 33.934359 -118.388486 81 139ft 0kts
22-Jan-17 20:07 33.934359 -118.388485 81 139ft 0kts
22-Jan-17 20:08 33.934361 -118.388471 81 139ft 1kts
22-Jan-17 20:09 33.934368 -118.388406 81 139ft 0kts
22-Jan-17 20:10 33.934369 -118.388395 81 139ft 0kts
22-Jan-17 20:11 33.934369 -118.388393 81 139ft 0kts
22-Jan-17 20:12 33.934370 -118.388391 81 139ft 0kts
22-Jan-17 20:13 33.934370 -118.388388 81 139ft 0kts
22-Jan-17 20:14 33.934397 -118.388150 81 139ft 0kts
22-Jan-17 20:15 33.934479 -118.387669 61 139ft 9kts
22-Jan-17 20:16 33.935984 -118.384266 84 139ft 20kts
22-Jan-17 20:17 33.936266 -118.383122 34 139ft 0kts
22-Jan-17 20:18 33.937136 -118.384958 258 140ft 27kts
22-Jan-17 20:19 33.933383 -118.429455 268 1915ft 177kts
22-Jan-17 20:20 33.928296 -118.504640 263 4673ft 270kts
22-Jan-17 20:21 33.927070 -118.596344 263 7000ft 264kts
22-Jan-17 20:22 33.927700 -118.682563 262 11936ft 267kts
22-Jan-17 20:23 33.926589 -118.782707 263 13053ft 318kts
22-Jan-17 20:24 33.925854 -118.884268 263 17529ft 318kts
22-Jan-17 20:25 33.927140 -118.997063 263 21765ft 327kts
22-Jan-17 20:26 33.963341 -119.103756 303 22993ft 399kts
22-Jan-17 20:27 34.039691 -119.196294 299 23657ft 392kts
22-Jan-17 20:28 34.118228 -119.291996 299 26221ft 415kts
22-Jan-17 20:29 34.200564 -119.392261 298 28891ft 421kts
22-Jan-17 20:30 34.281885 -119.491538 297 30954ft 409kts
22-Jan-17 20:31 34.361715 -119.588900 297 30943ft 407kts
22-Jan-17 20:32 34.441012 -119.686509 297 30940ft 407kts
22-Jan-17 20:33 34.520736 -119.784220 299 30932ft 415kts
22-Jan-17 20:34 34.608602 -119.876909 301 30921ft 417kts
22-Jan-17 20:35 34.696410 -119.969904 300 30906ft 417kts
22-Jan-17 20:36 34.783910 -120.063326 301 30901ft 423kts
22-Jan-17 20:37 34.872606 -120.157456 300 30901ft 423kts
22-Jan-17 20:38 34.960924 -120.252009 300 30878ft 421kts
22-Jan-17 20:39 35.048593 -120.346276 300 30875ft 422kts
22-Jan-17 20:40 35.136462 -120.441070 300 30866ft 421kts
22-Jan-17 20:41 35.223977 -120.535791 299 30854ft 421kts
22-Jan-17 20:42 35.311632 -120.630448 299 30842ft 420kts
22-Jan-17 20:43 35.399186 -120.726043 299 30843ft 421kts
22-Jan-17 20:44 35.486632 -120.821526 300 30832ft 424kts
22-Jan-17 20:45 35.582602 -120.911096 304 30826ft 433kts
22-Jan-17 20:46 35.673857 -120.995328 301 30514ft 387kts
22-Jan-17 20:47 35.757465 -121.073354 300 29269ft 370kts
22-Jan-17 20:48 35.839847 -121.149703 301 27397ft 373kts
22-Jan-17 20:49 35.920638 -121.225431 301 26018ft 360kts
22-Jan-17 20:50 35.999295 -121.299547 302 24644ft 351kts
22-Jan-17 20:51 36.078117 -121.373475 309 22827ft 363kts
22-Jan-17 20:52 36.164351 -121.440300 313 21711ft 358kts
22-Jan-17 20:53 36.247971 -121.504814 315 20485ft 352kts
22-Jan-17 20:54 36.330100 -121.568975 315 20059ft 350kts
22-Jan-17 20:55 36.412434 -121.633800 316 20050ft 351kts
22-Jan-17 20:56 36.495152 -121.699019 316 20048ft 352kts
22-Jan-17 20:57 36.574859 -121.761779 316 19588ft 328kts
22-Jan-17 20:58 36.650889 -121.822135 317 18275ft 321kts
22-Jan-17 20:59 36.725935 -121.881321 322 16942ft 320kts
22-Jan-17 21:00 36.812625 -121.914586 341 15695ft 326kts
22-Jan-17 21:01 36.900358 -121.938537 340 15044ft 323kts
22-Jan-17 21:02 36.987108 -121.965410 335 14820ft 317kts
22-Jan-17 21:03 37.070334 -121.998936 335 13606ft 311kts
22-Jan-17 21:04 37.150586 -122.030536 335 12085ft 298kts
22-Jan-17 21:05 37.227861 -122.060911 336 10194ft 282kts
22-Jan-17 21:06 37.300567 -122.089505 336 8320ft 268kts
22-Jan-17 21:07 37.370575 -122.117004 336 6331ft 261kts
22-Jan-17 21:08 37.439128 -122.143963 337 4485ft 254kts
22-Jan-17 21:09 37.508187 -122.166749 343 3458ft 258kts
22-Jan-17 21:10 37.553896 -122.216598 291 2220ft 209kts
22-Jan-17 21:11 37.577291 -122.276324 294 1488ft 177kts
22-Jan-17 21:12 37.600192 -122.330227 296 488ft 183kts
22-Jan-17 21:13 37.619982 -122.377991 295 26ft 87kts
22-Jan-17 21:14 37.622642 -122.385633 221 26ft 0kts
22-Jan-17 21:15 37.622603 -122.385678 221 26ft 5kts
22-Jan-17 21:16 37.623639 -122.389677 298 26ft 19kts
22-Jan-17 21:17 37.624834 -122.392560 298 26ft 22kts
22-Jan-17 21:18 37.625335 -122.398926 307 26ft 0kts
22-Jan-17 21:19 37.625335 -122.398926 307 26ft 0kts
22-Jan-17 21:20 37.625335 -122.398926 307 26ft 0kts

Navigation Log

Ident Type
Flight plan parsing failed, navigation log unavailable